Terminal Aerodrome Forecast
Issued by NWS

Current Version | Previous Version | Text Only | Print | Product List | Glossary Off
Versions: 1 2 3 4 5 6 7 8 9 10 11 12 13 14 15 16 17 18

400
FTUS41 KILN 242340
TAFLUK
TAF
KLUK 242340Z 2500/2524 02005KT 2SM SHRA BR VCTS OVC029CB
     FM250400 30006KT 5SM -SHRA VCTS OVC014CB
     FM251400 26006KT 5SM -SHRA OVC011
     FM251900 29010KT P6SM VCSH OVC015=

USA.gov is the U.S. government's official web portal to all federal, state and local government web resources and services.